sensor_id;sensor_type;location;lat;lon;timestamp;pressure;altitude;pressure_sealevel;temperature;humidity
18697;BME280;22617;43.690;27.956;2023-04-06T00:01:43;98486.56;;;4.07;85.00
18697;BME280;22617;43.690;27.956;2023-04-06T00:06:47;98472.78;;;4.05;84.55
18697;BME280;22617;43.690;27.956;2023-04-06T00:11:51;98465.88;;;4.04;84.81
18697;BME280;22617;43.690;27.956;2023-04-06T00:16:56;98467.66;;;4.06;84.87
18697;BME280;22617;43.690;27.956;2023-04-06T00:22:00;98466.75;;;4.03;85.20
18697;BME280;22617;43.690;27.956;2023-04-06T00:27:04;98467.56;;;4.00;85.59
18697;BME280;22617;43.690;27.956;2023-04-06T00:32:09;98466.63;;;3.95;85.59
18697;BME280;22617;43.690;27.956;2023-04-06T00:37:13;98459.84;;;4.03;85.73
18697;BME280;22617;43.690;27.956;2023-04-06T00:42:18;98452.13;;;4.03;86.00
18697;BME280;22617;43.690;27.956;2023-04-06T00:47:28;98443.50;;;4.00;85.27
18697;BME280;22617;43.690;27.956;2023-04-06T00:52:33;98440.66;;;3.80;83.86
18697;BME280;22617;43.690;27.956;2023-04-06T00:57:37;98447.44;;;3.73;83.02
18697;BME280;22617;43.690;27.956;2023-04-06T01:02:42;98449.84;;;3.60;82.53
18697;BME280;22617;43.690;27.956;2023-04-06T01:07:50;98437.69;;;3.53;82.86
18697;BME280;22617;43.690;27.956;2023-04-06T01:12:58;98434.19;;;3.47;82.81
18697;BME280;22617;43.690;27.956;2023-04-06T01:18:27;98425.53;;;3.42;83.08
18697;BME280;22617;43.690;27.956;2023-04-06T01:23:52;98426.28;;;3.35;83.05
18697;BME280;22617;43.690;27.956;2023-04-06T01:29:03;98434.06;;;3.38;83.21
18697;BME280;22617;43.690;27.956;2023-04-06T01:34:08;98423.09;;;3.50;83.18
18697;BME280;22617;43.690;27.956;2023-04-06T01:39:12;98419.47;;;3.39;82.40
18697;BME280;22617;43.690;27.956;2023-04-06T01:44:17;98419.34;;;3.31;82.39
18697;BME280;22617;43.690;27.956;2023-04-06T01:49:28;98411.63;;;3.31;82.44
18697;BME280;22617;43.690;27.956;2023-04-06T01:54:34;98407.31;;;3.29;82.37
18697;BME280;22617;43.690;27.956;2023-04-06T01:59:45;98405.53;;;3.26;82.66
18697;BME280;22617;43.690;27.956;2023-04-06T02:05:05;98403.78;;;3.24;82.49
18697;BME280;22617;43.690;27.956;2023-04-06T02:10:13;98409.09;;;3.34;82.43
18697;BME280;22617;43.690;27.956;2023-04-06T02:15:18;98409.84;;;3.27;82.62
18697;BME280;22617;43.690;27.956;2023-04-06T02:20:22;98415.19;;;3.41;82.77
18697;BME280;22617;43.690;27.956;2023-04-06T02:25:27;98404.81;;;3.36;82.65
18697;BME280;22617;43.690;27.956;2023-04-06T02:30:31;98401.38;;;3.36;81.92
18697;BME280;22617;43.690;27.956;2023-04-06T02:35:34;98401.41;;;3.37;82.07
18697;BME280;22617;43.690;27.956;2023-04-06T02:40:40;98404.03;;;3.39;82.14
18697;BME280;22617;43.690;27.956;2023-04-06T02:45:56;98396.22;;;3.34;81.99
18697;BME280;22617;43.690;27.956;2023-04-06T02:51:00;98387.69;;;3.38;82.34
18697;BME280;22617;43.690;27.956;2023-04-06T02:56:05;98393.59;;;3.30;82.83
18697;BME280;22617;43.690;27.956;2023-04-06T03:01:19;98386.69;;;3.29;82.53
18697;BME280;22617;43.690;27.956;2023-04-06T03:06:29;98396.16;;;3.30;81.95
18697;BME280;22617;43.690;27.956;2023-04-06T03:11:42;98402.06;;;3.21;81.89
18697;BME280;22617;43.690;27.956;2023-04-06T03:16:46;98392.59;;;3.22;81.82
18697;BME280;22617;43.690;27.956;2023-04-06T03:21:54;98394.41;;;3.26;82.39
18697;BME280;22617;43.690;27.956;2023-04-06T03:27:00;98395.19;;;3.23;81.92
18697;BME280;22617;43.690;27.956;2023-04-06T03:32:04;98398.66;;;3.25;81.13
18697;BME280;22617;43.690;27.956;2023-04-06T03:37:13;98400.31;;;3.22;81.63
18697;BME280;22617;43.690;27.956;2023-04-06T03:42:24;98395.97;;;3.18;81.53
18697;BME280;22617;43.690;27.956;2023-04-06T03:47:35;98409.66;;;3.15;81.05
18697;BME280;22617;43.690;27.956;2023-04-06T03:52:41;98407.91;;;3.13;80.79
18697;BME280;22617;43.690;27.956;2023-04-06T03:57:46;98401.97;;;3.18;80.62
18697;BME280;22617;43.690;27.956;2023-04-06T04:02:50;98396.78;;;3.17;80.81
18697;BME280;22617;43.690;27.956;2023-04-06T04:07:55;98396.97;;;3.26;80.98
18697;BME280;22617;43.690;27.956;2023-04-06T04:13:02;98405.63;;;3.32;81.35
18697;BME280;22617;43.690;27.956;2023-04-06T04:18:06;98409.78;;;3.21;82.24
18697;BME280;22617;43.690;27.956;2023-04-06T04:23:10;98406.31;;;3.21;82.87
18697;BME280;22617;43.690;27.956;2023-04-06T04:28:15;98400.47;;;3.31;82.19
18697;BME280;22617;43.690;27.956;2023-04-06T04:33:19;98401.28;;;3.28;81.97
18697;BME280;22617;43.690;27.956;2023-04-06T04:38:25;98410.75;;;3.29;81.24
18697;BME280;22617;43.690;27.956;2023-04-06T04:43:32;98409.22;;;3.40;81.96
18697;BME280;22617;43.690;27.956;2023-04-06T04:48:37;98408.41;;;3.44;81.42
18697;BME280;22617;43.690;27.956;2023-04-06T04:53:42;98408.41;;;3.46;81.43
18697;BME280;22617;43.690;27.956;2023-04-06T04:58:56;98411.09;;;3.54;80.96
18697;BME280;22617;43.690;27.956;2023-04-06T05:04:04;98412.72;;;3.47;81.00
18697;BME280;22617;43.690;27.956;2023-04-06T05:09:09;98410.09;;;3.45;81.51
18697;BME280;22617;43.690;27.956;2023-04-06T05:14:17;98402.53;;;3.56;81.67
18697;BME280;22617;43.690;27.956;2023-04-06T05:19:22;98413.69;;;3.55;81.46
18697;BME280;22617;43.690;27.956;2023-04-06T05:24:26;98400.94;;;3.66;80.97
18697;BME280;22617;43.690;27.956;2023-04-06T05:29:31;98388.13;;;3.70;80.32
18697;BME280;22617;43.690;27.956;2023-04-06T05:34:36;98406.34;;;3.82;80.25
18697;BME280;22617;43.690;27.956;2023-04-06T05:39:41;98400.34;;;3.85;80.42
18697;BME280;22617;43.690;27.956;2023-04-06T05:44:47;98405.50;;;3.85;80.36
18697;BME280;22617;43.690;27.956;2023-04-06T05:49:51;98397.06;;;3.97;80.46
18697;BME280;22617;43.690;27.956;2023-04-06T05:55:05;98404.91;;;4.06;80.41
18697;BME280;22617;43.690;27.956;2023-04-06T06:00:15;98403.19;;;4.06;79.60
18697;BME280;22617;43.690;27.956;2023-04-06T06:05:28;98394.66;;;4.13;79.31
18697;BME280;22617;43.690;27.956;2023-04-06T06:10:38;98393.03;;;4.20;80.23
18697;BME280;22617;43.690;27.956;2023-04-06T06:15:47;98393.19;;;4.33;80.36
18697;BME280;22617;43.690;27.956;2023-04-06T06:20:53;98392.41;;;4.42;79.42
18697;BME280;22617;43.690;27.956;2023-04-06T06:25:56;98393.19;;;4.33;79.07
18697;BME280;22617;43.690;27.956;2023-04-06T06:31:03;98398.44;;;4.43;78.85
18697;BME280;22617;43.690;27.956;2023-04-06T06:36:07;98403.59;;;4.43;78.33
18697;BME280;22617;43.690;27.956;2023-04-06T06:41:12;98399.31;;;4.43;78.61
18697;BME280;22617;43.690;27.956;2023-04-06T06:46:17;98401.09;;;4.52;78.63
18697;BME280;22617;43.690;27.956;2023-04-06T06:51:20;98400.28;;;4.54;77.89
18697;BME280;22617;43.690;27.956;2023-04-06T06:56:24;98397.00;;;4.70;78.53
18697;BME280;22617;43.690;27.956;2023-04-06T07:01:31;98392.91;;;4.92;78.51
18697;BME280;22617;43.690;27.956;2023-04-06T07:06:36;98392.19;;;5.14;77.50
18697;BME280;22617;43.690;27.956;2023-04-06T07:11:41;98387.22;;;5.39;77.39
18697;BME280;22617;43.690;27.956;2023-04-06T07:16:46;98383.94;;;5.67;77.67
18697;BME280;22617;43.690;27.956;2023-04-06T07:21:51;98389.94;;;5.60;76.68
18697;BME280;22617;43.690;27.956;2023-04-06T07:26:54;98388.28;;;5.74;77.01
18697;BME280;22617;43.690;27.956;2023-04-06T07:32:00;98394.34;;;5.79;77.25
18697;BME280;22617;43.690;27.956;2023-04-06T07:37:06;98391.88;;;5.94;76.43
18697;BME280;22617;43.690;27.956;2023-04-06T07:42:10;98388.53;;;6.26;77.54
18697;BME280;22617;43.690;27.956;2023-04-06T07:47:15;98380.78;;;6.33;76.43
18697;BME280;22617;43.690;27.956;2023-04-06T07:52:19;98391.22;;;6.83;75.82
18697;BME280;22617;43.690;27.956;2023-04-06T07:57:24;98387.75;;;6.77;75.32
18697;BME280;22617;43.690;27.956;2023-04-06T08:02:29;98398.13;;;6.69;74.89
18697;BME280;22617;43.690;27.956;2023-04-06T08:07:33;98391.19;;;6.59;74.97
18697;BME280;22617;43.690;27.956;2023-04-06T08:12:37;98399.00;;;6.71;75.35
18697;BME280;22617;43.690;27.956;2023-04-06T08:17:42;98395.56;;;6.75;75.52
18697;BME280;22617;43.690;27.956;2023-04-06T08:22:45;98409.34;;;6.65;75.05
18697;BME280;22617;43.690;27.956;2023-04-06T08:27:50;98395.53;;;6.72;74.81
18697;BME280;22617;43.690;27.956;2023-04-06T08:32:56;98404.13;;;6.50;75.99
18697;BME280;22617;43.690;27.956;2023-04-06T08:38:00;98398.13;;;6.65;76.33
18697;BME280;22617;43.690;27.956;2023-04-06T08:43:06;98407.59;;;6.76;75.39
18697;BME280;22617;43.690;27.956;2023-04-06T08:48:15;98398.16;;;6.90;74.66
18697;BME280;22617;43.690;27.956;2023-04-06T08:53:20;98410.22;;;6.96;75.29
18697;BME280;22617;43.690;27.956;2023-04-06T08:58:25;98404.19;;;7.03;73.78
18697;BME280;22617;43.690;27.956;2023-04-06T09:03:41;98402.47;;;7.19;74.98
18697;BME280;22617;43.690;27.956;2023-04-06T09:08:45;98401.59;;;7.17;74.78
18697;BME280;22617;43.690;27.956;2023-04-06T09:13:50;98401.63;;;7.14;74.15
18697;BME280;22617;43.690;27.956;2023-04-06T09:19:03;98404.16;;;7.44;74.64
18697;BME280;22617;43.690;27.956;2023-04-06T09:24:08;98399.88;;;7.37;75.26
18697;BME280;22617;43.690;27.956;2023-04-06T09:29:22;98398.13;;;7.40;74.07
18697;BME280;22617;43.690;27.956;2023-04-06T09:34:27;98399.00;;;7.20;73.96
18697;BME280;22617;43.690;27.956;2023-04-06T09:39:31;98397.28;;;6.94;74.49
18697;BME280;22617;43.690;27.956;2023-04-06T09:44:35;98396.44;;;7.05;76.16
18697;BME280;22617;43.690;27.956;2023-04-06T09:49:40;98393.84;;;7.08;75.07
18697;BME280;22617;43.690;27.956;2023-04-06T09:54:49;98392.88;;;7.68;73.83
18697;BME280;22617;43.690;27.956;2023-04-06T10:00:03;98385.88;;;8.00;72.23
18697;BME280;22617;43.690;27.956;2023-04-06T10:05:22;98387.72;;;7.71;74.20
18697;BME280;22617;43.690;27.956;2023-04-06T10:10:28;98387.72;;;7.71;73.62
18697;BME280;22617;43.690;27.956;2023-04-06T10:15:33;98387.63;;;7.98;74.25
18697;BME280;22617;43.690;27.956;2023-04-06T10:20:42;98395.47;;;7.77;73.42
18697;BME280;22617;43.690;27.956;2023-04-06T10:25:53;98388.53;;;7.82;72.78
18697;BME280;22617;43.690;27.956;2023-04-06T10:30:59;98385.94;;;7.77;75.19
18697;BME280;22617;43.690;27.956;2023-04-06T10:36:14;98389.41;;;7.81;72.99
18697;BME280;22617;43.690;27.956;2023-04-06T10:41:18;98398.06;;;7.81;74.60
18697;BME280;22617;43.690;27.956;2023-04-06T10:46:25;98396.34;;;7.71;74.21
18697;BME280;22617;43.690;27.956;2023-04-06T10:51:30;98389.44;;;7.72;73.85
18697;BME280;22617;43.690;27.956;2023-04-06T10:56:37;98393.63;;;8.06;73.89
18697;BME280;22617;43.690;27.956;2023-04-06T11:01:44;98388.38;;;8.23;72.97
18697;BME280;22617;43.690;27.956;2023-04-06T11:06:50;98388.38;;;8.34;73.13
18697;BME280;22617;43.690;27.956;2023-04-06T11:11:53;98386.44;;;8.67;72.85
18697;BME280;22617;43.690;27.956;2023-04-06T11:16:58;98383.75;;;8.78;71.61
18697;BME280;22617;43.690;27.956;2023-04-06T11:22:07;98396.09;;;8.47;71.68
18697;BME280;22617;43.690;27.956;2023-04-06T11:27:11;98388.38;;;8.23;72.99
18697;BME280;22617;43.690;27.956;2023-04-06T11:32:20;98379.69;;;8.27;71.71
18697;BME280;22617;43.690;27.956;2023-04-06T11:37:27;98376.25;;;8.34;70.80
18697;BME280;22617;43.690;27.956;2023-04-06T11:42:34;98376.09;;;8.63;71.70
18697;BME280;22617;43.690;27.956;2023-04-06T11:47:38;98374.38;;;8.57;71.70
18697;BME280;22617;43.690;27.956;2023-04-06T11:52:44;98376.97;;;8.54;70.50
18697;BME280;22617;43.690;27.956;2023-04-06T11:57:48;98372.59;;;8.67;70.56
18697;BME280;22617;43.690;27.956;2023-04-06T12:02:53;98367.25;;;8.84;70.43
18697;BME280;22617;43.690;27.956;2023-04-06T12:07:58;98374.50;;;8.39;70.88
18697;BME280;22617;43.690;27.956;2023-04-06T12:13:04;98371.97;;;8.19;72.78
18697;BME280;22617;43.690;27.956;2023-04-06T12:18:09;98383.16;;;8.26;71.95
18697;BME280;22617;43.690;27.956;2023-04-06T12:23:14;98372.63;;;8.59;70.86
18697;BME280;22617;43.690;27.956;2023-04-06T12:28:17;98363.78;;;8.85;70.34
18697;BME280;22617;43.690;27.956;2023-04-06T12:33:22;98362.06;;;8.84;70.33
18697;BME280;22617;43.690;27.956;2023-04-06T12:38:28;98363.53;;;9.18;71.01
18697;BME280;22617;43.690;27.956;2023-04-06T12:43:32;98362.59;;;9.22;71.01
18697;BME280;22617;43.690;27.956;2023-04-06T12:48:35;98365.84;;;9.47;68.93
18697;BME280;22617;43.690;27.956;2023-04-06T12:53:41;98365.25;;;9.19;69.96
18697;BME280;22617;43.690;27.956;2023-04-06T12:58:45;98354.47;;;9.58;69.81
18697;BME280;22617;43.690;27.956;2023-04-06T13:03:49;98357.13;;;10.29;67.89
18697;BME280;22617;43.690;27.956;2023-04-06T13:08:54;98357.28;;;10.12;66.08
18697;BME280;22617;43.690;27.956;2023-04-06T13:13:58;98351.78;;;9.66;67.88
18697;BME280;22617;43.690;27.956;2023-04-06T13:19:01;98349.31;;;9.52;68.97
18697;BME280;22617;43.690;27.956;2023-04-06T13:24:07;98351.00;;;9.58;69.15
18697;BME280;22617;43.690;27.956;2023-04-06T13:29:10;98359.00;;;9.37;68.25
18697;BME280;22617;43.690;27.956;2023-04-06T13:34:13;98348.75;;;9.22;69.05
18697;BME280;22617;43.690;27.956;2023-04-06T13:39:19;98346.63;;;9.63;68.83
18697;BME280;22617;43.690;27.956;2023-04-06T13:44:23;98348.41;;;9.58;68.00
18697;BME280;22617;43.690;27.956;2023-04-06T13:49:26;98352.63;;;9.65;67.12
18697;BME280;22617;43.690;27.956;2023-04-06T13:54:31;98351.81;;;9.61;66.98
18697;BME280;22617;43.690;27.956;2023-04-06T13:59:35;98346.78;;;9.46;67.60
18697;BME280;22617;43.690;27.956;2023-04-06T14:04:39;98345.22;;;9.29;68.87
18697;BME280;22617;43.690;27.956;2023-04-06T14:09:44;98343.97;;;9.66;68.85
18697;BME280;22617;43.690;27.956;2023-04-06T14:14:48;98346.34;;;9.86;67.63
18697;BME280;22617;43.690;27.956;2023-04-06T14:19:51;98338.53;;;9.86;67.46
18697;BME280;22617;43.690;27.956;2023-04-06T14:24:56;98334.00;;;10.66;65.88
18697;BME280;22617;43.690;27.956;2023-04-06T14:30:00;98329.13;;;11.00;65.63
18697;BME280;22617;43.690;27.956;2023-04-06T14:35:05;98330.00;;;10.43;63.76
18697;BME280;22617;43.690;27.956;2023-04-06T14:40:11;98341.66;;;10.17;64.93
18697;BME280;22617;43.690;27.956;2023-04-06T14:45:15;98338.59;;;9.80;64.83
18697;BME280;22617;43.690;27.956;2023-04-06T14:50:19;98337.22;;;9.48;67.32
18697;BME280;22617;43.690;27.956;2023-04-06T14:55:24;98339.09;;;9.34;69.38
18697;BME280;22617;43.690;27.956;2023-04-06T15:00:27;98337.34;;;9.36;68.67
18697;BME280;22617;43.690;27.956;2023-04-06T15:05:33;98337.38;;;9.35;67.24
18697;BME280;22617;43.690;27.956;2023-04-06T15:10:38;98348.69;;;9.28;67.43
18697;BME280;22617;43.690;27.956;2023-04-06T15:15:42;98341.97;;;9.05;68.24
18697;BME280;22617;43.690;27.956;2023-04-06T15:20:46;98348.97;;;8.97;68.39
18697;BME280;22617;43.690;27.956;2023-04-06T15:25:51;98344.63;;;8.99;68.41
18697;BME280;22617;43.690;27.956;2023-04-06T15:30:55;98342.97;;;8.88;68.08
18697;BME280;22617;43.690;27.956;2023-04-06T15:36:02;98354.31;;;8.82;69.26
18697;BME280;22617;43.690;27.956;2023-04-06T15:41:13;98356.03;;;8.82;68.38
18697;BME280;22617;43.690;27.956;2023-04-06T15:46:16;98358.66;;;8.77;69.84
18697;BME280;22617;43.690;27.956;2023-04-06T15:51:20;98361.31;;;8.72;70.03
18697;BME280;22617;43.690;27.956;2023-04-06T15:56:25;98372.53;;;8.78;70.14
18697;BME280;22617;43.690;27.956;2023-04-06T16:01:28;98375.16;;;8.70;70.58
18697;BME280;22617;43.690;27.956;2023-04-06T16:06:32;98360.47;;;8.64;69.78
18697;BME280;22617;43.690;27.956;2023-04-06T16:11:37;98376.94;;;8.62;69.97
18697;BME280;22617;43.690;27.956;2023-04-06T16:16:41;98384.78;;;8.56;70.22
18697;BME280;22617;43.690;27.956;2023-04-06T16:21:45;98383.06;;;8.52;71.64
18697;BME280;22617;43.690;27.956;2023-04-06T16:26:49;98390.84;;;8.52;72.28
18697;BME280;22617;43.690;27.956;2023-04-06T16:31:53;98390.06;;;8.36;72.17
18697;BME280;22617;43.690;27.956;2023-04-06T16:36:57;98398.72;;;8.35;72.44
18697;BME280;22617;43.690;27.956;2023-04-06T16:42:02;98412.59;;;8.34;72.74
18697;BME280;22617;43.690;27.956;2023-04-06T16:47:05;98410.88;;;8.24;73.73
18697;BME280;22617;43.690;27.956;2023-04-06T16:52:09;98415.22;;;8.17;73.74
18697;BME280;22617;43.690;27.956;2023-04-06T16:57:14;98417.81;;;8.16;73.65
18697;BME280;22617;43.690;27.956;2023-04-06T17:02:19;98425.66;;;8.02;74.25
18697;BME280;22617;43.690;27.956;2023-04-06T17:07:22;98426.56;;;7.95;74.91
18697;BME280;22617;43.690;27.956;2023-04-06T17:12:28;98432.59;;;7.96;75.00
18697;BME280;22617;43.690;27.956;2023-04-06T17:17:32;98431.75;;;7.95;75.00
18697;BME280;22617;43.690;27.956;2023-04-06T17:22:35;98441.22;;;7.96;75.17
18697;BME280;22617;43.690;27.956;2023-04-06T17:27:41;98449.03;;;7.92;75.17
18697;BME280;22617;43.690;27.956;2023-04-06T17:32:45;98452.53;;;7.84;75.38
18697;BME280;22617;43.690;27.956;2023-04-06T17:37:49;98458.63;;;7.67;75.50
18697;BME280;22617;43.690;27.956;2023-04-06T17:42:54;98464.66;;;7.49;76.08
18697;BME280;22617;43.690;27.956;2023-04-06T17:47:59;98466.41;;;7.41;76.82
18697;BME280;22617;43.690;27.956;2023-04-06T17:53:02;98475.03;;;7.29;76.91
18697;BME280;22617;43.690;27.956;2023-04-06T17:58:07;98481.94;;;7.08;77.15
18697;BME280;22617;43.690;27.956;2023-04-06T18:03:11;98474.13;;;6.97;77.49
18697;BME280;22617;43.690;27.956;2023-04-06T18:08:16;98477.56;;;6.75;77.79
18697;BME280;22617;43.690;27.956;2023-04-06T18:13:21;98491.25;;;6.52;77.96
18697;BME280;22617;43.690;27.956;2023-04-06T18:18:27;98498.16;;;6.44;78.97
18697;BME280;22617;43.690;27.956;2023-04-06T18:23:31;98505.88;;;6.38;78.80
18697;BME280;22617;43.690;27.956;2023-04-06T18:28:36;98511.06;;;6.38;79.22
18697;BME280;22617;43.690;27.956;2023-04-06T18:33:43;98511.06;;;6.38;79.78
18697;BME280;22617;43.690;27.956;2023-04-06T18:38:48;98515.38;;;6.39;80.21
18697;BME280;22617;43.690;27.956;2023-04-06T18:43:53;98516.19;;;6.28;80.27
18697;BME280;22617;43.690;27.956;2023-04-06T18:48:57;98512.72;;;6.24;81.02
18697;BME280;22617;43.690;27.956;2023-04-06T18:54:01;98514.38;;;6.11;81.07
18697;BME280;22617;43.690;27.956;2023-04-06T18:59:06;98514.38;;;6.08;81.98
18697;BME280;22617;43.690;27.956;2023-04-06T19:04:10;98522.09;;;6.02;81.77
18697;BME280;22617;43.690;27.956;2023-04-06T19:09:14;98518.63;;;6.05;82.11
18697;BME280;22617;43.690;27.956;2023-04-06T19:14:19;98526.38;;;5.97;82.39
18697;BME280;22617;43.690;27.956;2023-04-06T19:19:22;98527.91;;;5.77;82.56
18697;BME280;22617;43.690;27.956;2023-04-06T19:24:26;98527.78;;;5.62;83.94
18697;BME280;22617;43.690;27.956;2023-04-06T19:29:32;98526.09;;;5.67;84.27
18697;BME280;22617;43.690;27.956;2023-04-06T19:34:35;98538.16;;;5.65;84.85
18697;BME280;22617;43.690;27.956;2023-04-06T19:39:39;98545.91;;;5.65;85.16
18697;BME280;22617;43.690;27.956;2023-04-06T19:44:46;98551.97;;;5.65;84.95
18697;BME280;22617;43.690;27.956;2023-04-06T19:49:50;98556.16;;;5.53;84.53
18697;BME280;22617;43.690;27.956;2023-04-06T19:54:53;98557.94;;;5.60;84.14
18697;BME280;22617;43.690;27.956;2023-04-06T19:59:58;98563.03;;;5.52;83.88
18697;BME280;22617;43.690;27.956;2023-04-06T20:05:10;98574.13;;;5.41;83.71
18697;BME280;22617;43.690;27.956;2023-04-06T20:10:14;98565.38;;;5.26;84.26
18697;BME280;22617;43.690;27.956;2023-04-06T20:15:19;98576.47;;;5.16;85.07
18697;BME280;22617;43.690;27.956;2023-04-06T20:20:24;98573.00;;;5.13;85.15
18697;BME280;22617;43.690;27.956;2023-04-06T20:25:27;98582.47;;;5.12;86.14
18697;BME280;22617;43.690;27.956;2023-04-06T20:30:32;98581.66;;;5.16;85.48
18697;BME280;22617;43.690;27.956;2023-04-06T20:35:36;98585.91;;;5.14;85.31
18697;BME280;22617;43.690;27.956;2023-04-06T20:40:43;98582.56;;;5.24;84.82
18697;BME280;22617;43.690;27.956;2023-04-06T20:45:47;98590.22;;;5.15;84.47
18697;BME280;22617;43.690;27.956;2023-04-06T20:50:51;98591.91;;;5.13;84.23
18697;BME280;22617;43.690;27.956;2023-04-06T20:55:55;98598.78;;;5.08;83.50
18697;BME280;22617;43.690;27.956;2023-04-06T21:01:00;98605.75;;;5.18;83.98
18697;BME280;22617;43.690;27.956;2023-04-06T21:06:04;98608.22;;;5.06;83.67
18697;BME280;22617;43.690;27.956;2023-04-06T21:11:07;98620.03;;;4.86;84.49
18697;BME280;22617;43.690;27.956;2023-04-06T21:16:13;98613.50;;;5.18;85.06
18697;BME280;22617;43.690;27.956;2023-04-06T21:21:16;98615.84;;;4.96;85.58
18697;BME280;22617;43.690;27.956;2023-04-06T21:26:20;98614.09;;;4.93;85.78
18697;BME280;22617;43.690;27.956;2023-04-06T21:31:25;98613.25;;;4.96;85.61
18697;BME280;22617;43.690;27.956;2023-04-06T21:36:28;98623.41;;;4.82;85.97
18697;BME280;22617;43.690;27.956;2023-04-06T21:41:33;98631.22;;;4.87;85.96
18697;BME280;22617;43.690;27.956;2023-04-06T21:46:38;98635.56;;;4.89;85.85
18697;BME280;22617;43.690;27.956;2023-04-06T21:51:42;98631.31;;;4.93;85.25
18697;BME280;22617;43.690;27.956;2023-04-06T21:56:46;98636.34;;;4.83;84.07
18697;BME280;22617;43.690;27.956;2023-04-06T22:01:51;98637.34;;;4.93;82.23
18697;BME280;22617;43.690;27.956;2023-04-06T22:06:57;98635.72;;;5.04;78.00
18697;BME280;22617;43.690;27.956;2023-04-06T22:12:01;98634.16;;;5.18;75.77
18697;BME280;22617;43.690;27.956;2023-04-06T22:17:06;98637.63;;;5.17;75.18
18697;BME280;22617;43.690;27.956;2023-04-06T22:22:10;98641.97;;;5.21;73.42
18697;BME280;22617;43.690;27.956;2023-04-06T22:27:13;98645.44;;;5.25;71.59
18697;BME280;22617;43.690;27.956;2023-04-06T22:32:19;98647.25;;;5.32;69.72
18697;BME280;22617;43.690;27.956;2023-04-06T22:37:22;98650.63;;;5.25;69.73
18697;BME280;22617;43.690;27.956;2023-04-06T22:42:26;98656.53;;;5.15;71.05
18697;BME280;22617;43.690;27.956;2023-04-06T22:47:30;98657.31;;;5.08;71.00
18697;BME280;22617;43.690;27.956;2023-04-06T22:52:35;98654.69;;;5.03;70.68
18697;BME280;22617;43.690;27.956;2023-04-06T22:57:38;98656.47;;;5.10;70.16
18697;BME280;22617;43.690;27.956;2023-04-06T23:02:43;98648.50;;;4.92;69.71
18697;BME280;22617;43.690;27.956;2023-04-06T23:07:47;98648.47;;;4.91;68.56
18697;BME280;22617;43.690;27.956;2023-04-06T23:12:52;98651.91;;;4.90;68.03
18697;BME280;22617;43.690;27.956;2023-04-06T23:17:57;98657.03;;;4.87;68.17
18697;BME280;22617;43.690;27.956;2023-04-06T23:23:00;98652.66;;;4.81;68.43
18697;BME280;22617;43.690;27.956;2023-04-06T23:28:03;98660.38;;;4.78;67.37
18697;BME280;22617;43.690;27.956;2023-04-06T23:33:08;98671.41;;;4.68;67.96
18697;BME280;22617;43.690;27.956;2023-04-06T23:38:12;98665.28;;;4.61;67.83
18697;BME280;22617;43.690;27.956;2023-04-06T23:43:15;98663.56;;;4.62;67.07
18697;BME280;22617;43.690;27.956;2023-04-06T23:48:20;98662.72;;;4.60;67.04
18697;BME280;22617;43.690;27.956;2023-04-06T23:53:24;98659.13;;;4.52;67.05
18697;BME280;22617;43.690;27.956;2023-04-06T23:58:27;98653.91;;;4.46;67.11
